createdAt,value
2017-11-23T00:00:48.410Z,932.86
2017-11-23T00:02:01.086Z,932.82
2017-11-23T00:03:13.759Z,932.81
2017-11-23T00:04:26.470Z,932.82
2017-11-23T00:05:39.177Z,932.86
2017-11-23T00:06:51.875Z,932.85
2017-11-23T00:08:04.108Z,932.85
2017-11-23T00:09:16.305Z,932.89
2017-11-23T00:10:29.049Z,932.92
2017-11-23T00:11:41.822Z,932.86
2017-11-23T00:12:54.574Z,932.9
2017-11-23T00:14:06.859Z,932.87
2017-11-23T00:15:19.602Z,932.96
2017-11-23T00:16:32.361Z,932.9
2017-11-23T00:17:45.131Z,932.95
2017-11-23T00:18:57.869Z,932.94
2017-11-23T00:20:10.153Z,932.93
2017-11-23T00:21:22.482Z,932.96
2017-11-23T00:22:35.254Z,932.94
2017-11-23T00:23:48.001Z,932.98
2017-11-23T00:25:00.726Z,932.94
2017-11-23T00:26:13.490Z,932.97
2017-11-23T00:27:26.222Z,932.95
2017-11-23T00:28:38.970Z,933.01
2017-11-23T00:29:51.730Z,933.05
2017-11-23T00:31:04.474Z,933.08
2017-11-23T00:32:16.305Z,933.08
2017-11-23T00:33:29.058Z,933.11
2017-11-23T00:34:41.826Z,933.06
2017-11-23T00:35:54.546Z,933.1
2017-11-23T00:37:07.265Z,933.06
2017-11-23T00:38:19.587Z,933.07
2017-11-23T00:39:31.880Z,933.02
2017-11-23T00:40:44.637Z,933.01
2017-11-23T00:41:56.910Z,933.01
2017-11-23T00:43:09.629Z,933.07
2017-11-23T00:44:22.373Z,933.06
2017-11-23T00:45:34.646Z,933.07
2017-11-23T00:46:47.386Z,933.11
2017-11-23T00:48:00.106Z,933.15
2017-11-23T00:49:12.845Z,933.21
2017-11-23T00:50:25.568Z,933.27
2017-11-23T00:51:38.289Z,933.24
2017-11-23T00:52:51.019Z,933.31
2017-11-23T00:54:03.749Z,933.33
2017-11-23T00:55:16.035Z,933.3
2017-11-23T00:56:28.314Z,933.33
2017-11-23T00:57:40.615Z,933.33
2017-11-23T00:58:53.358Z,933.37
2017-11-23T01:00:06.090Z,933.39
2017-11-23T01:01:18.870Z,933.45
2017-11-23T01:02:31.080Z,933.47
2017-11-23T01:03:42.884Z,933.45
2017-11-23T01:04:55.542Z,933.47
2017-11-23T01:06:08.228Z,933.5
2017-11-23T01:07:20.468Z,933.48
2017-11-23T01:08:33.159Z,933.47
2017-11-23T01:09:45.833Z,933.51
2017-11-23T01:10:58.499Z,933.5
2017-11-23T01:12:11.199Z,933.54
2017-11-23T01:13:23.856Z,933.55
2017-11-23T01:14:36.575Z,933.54
2017-11-23T01:15:49.265Z,933.53
2017-11-23T01:17:01.935Z,933.58
2017-11-23T01:18:14.650Z,933.56
2017-11-23T01:19:26.919Z,933.6
2017-11-23T01:20:39.609Z,933.6
2017-11-23T01:21:51.419Z,933.61
2017-11-23T01:23:04.107Z,933.6
2017-11-23T01:24:16.825Z,933.61
2017-11-23T01:25:29.515Z,933.54
2017-11-23T01:26:42.212Z,933.57
2017-11-23T01:27:54.924Z,933.57
2017-11-23T01:29:07.659Z,933.57
2017-11-23T01:30:20.358Z,933.56
2017-11-23T01:31:32.610Z,933.59
2017-11-23T01:32:45.330Z,933.62
2017-11-23T01:33:58.022Z,933.63
2017-11-23T01:35:10.742Z,933.61
2017-11-23T01:36:23.434Z,933.65
2017-11-23T01:37:36.145Z,933.75
2017-11-23T01:38:48.881Z,933.71
2017-11-23T01:40:01.653Z,933.73
2017-11-23T01:41:14.379Z,933.73
2017-11-23T01:42:26.665Z,933.74
2017-11-23T01:43:39.363Z,933.69
2017-11-23T01:44:52.080Z,933.7
2017-11-23T01:46:04.326Z,933.65
2017-11-23T01:47:17.031Z,933.61
2017-11-23T01:48:29.269Z,933.66
2017-11-23T01:49:41.955Z,933.69
2017-11-23T01:50:54.209Z,933.67
2017-11-23T01:52:06.922Z,933.7
2017-11-23T01:53:19.186Z,933.7
2017-11-23T01:54:31.894Z,933.74
2017-11-23T01:55:44.564Z,933.72
2017-11-23T01:56:57.276Z,933.75
2017-11-23T01:58:09.964Z,933.72
2017-11-23T01:59:22.696Z,933.75
2017-11-23T02:00:35.367Z,933.68
2017-11-23T02:01:48.068Z,933.69
2017-11-23T02:03:00.728Z,933.66
2017-11-23T02:04:13.416Z,933.64
2017-11-23T02:05:25.693Z,933.65
2017-11-23T02:06:38.396Z,933.69
2017-11-23T02:07:51.101Z,933.66
2017-11-23T02:09:03.848Z,933.68
2017-11-23T02:10:16.058Z,933.68
2017-11-23T02:11:28.818Z,933.66
2017-11-23T02:12:41.509Z,933.68
2017-11-23T02:13:54.200Z,933.73
2017-11-23T02:15:06.881Z,933.7
2017-11-23T02:16:19.115Z,933.7
2017-11-23T02:17:31.928Z,933.7
2017-11-23T02:18:44.628Z,933.68
2017-11-23T02:19:56.820Z,933.67
2017-11-23T02:21:09.499Z,933.64
2017-11-23T02:22:22.202Z,933.62
2017-11-23T02:23:34.435Z,933.63
2017-11-23T02:24:47.117Z,933.68
2017-11-23T02:25:59.790Z,933.64
2017-11-23T02:27:12.026Z,933.64
2017-11-23T02:28:24.750Z,933.62
2017-11-23T02:29:37.431Z,933.6
2017-11-23T02:30:49.648Z,933.61
2017-11-23T02:32:02.350Z,933.61
2017-11-23T02:33:14.150Z,933.63
2017-11-23T02:34:26.850Z,933.67
2017-11-23T02:35:39.093Z,933.64
2017-11-23T02:36:56.494Z,933.69
2017-11-23T02:38:09.197Z,933.68
2017-11-23T02:39:21.937Z,933.7
2017-11-23T02:40:34.692Z,933.69
2017-11-23T02:41:47.357Z,933.66
2017-11-23T02:43:00.095Z,933.61
2017-11-23T02:44:13.139Z,933.63
2017-11-23T02:45:25.848Z,933.63
2017-11-23T02:46:38.506Z,933.62
2017-11-23T02:47:51.207Z,933.65
2017-11-23T02:49:03.956Z,933.62
2017-11-23T02:50:16.197Z,933.6
2017-11-23T02:51:28.837Z,933.64
2017-11-23T02:52:41.061Z,933.62
2017-11-23T02:53:53.749Z,933.66
2017-11-23T02:55:06.520Z,933.66
2017-11-23T02:56:19.227Z,933.67
2017-11-23T02:57:31.919Z,933.62
2017-11-23T02:58:44.618Z,933.63
2017-11-23T02:59:57.317Z,933.62
2017-11-23T03:01:10.095Z,933.59
2017-11-23T03:02:22.796Z,933.52
2017-11-23T03:03:35.465Z,933.5
2017-11-23T03:04:48.356Z,933.48
2017-11-23T03:06:03.131Z,933.44
2017-11-23T03:07:15.792Z,933.43
2017-11-23T03:08:28.511Z,933.39
2017-11-23T03:09:40.759Z,933.41
2017-11-23T03:10:53.442Z,933.34
2017-11-23T03:12:06.131Z,933.33
2017-11-23T03:13:18.802Z,933.29
2017-11-23T03:14:31.482Z,933.33
2017-11-23T03:15:44.186Z,933.32
2017-11-23T03:16:57.482Z,933.35
2017-11-23T03:18:10.217Z,933.35
2017-11-23T03:19:22.050Z,933.34
2017-11-23T03:20:34.791Z,933.31
2017-11-23T03:21:47.104Z,933.29
2017-11-23T03:22:59.847Z,933.31
2017-11-23T03:24:12.143Z,933.34
2017-11-23T03:25:23.976Z,933.33
2017-11-23T03:26:36.263Z,933.31
2017-11-23T03:27:49.031Z,933.36
2017-11-23T03:29:01.768Z,933.34
2017-11-23T03:30:14.069Z,933.37
2017-11-23T03:31:26.825Z,933.38
2017-11-23T03:32:39.576Z,933.32
2017-11-23T03:33:52.307Z,933.27
2017-11-23T03:35:05.061Z,933.27
2017-11-23T03:36:17.806Z,933.23
2017-11-23T03:37:30.077Z,933.27
2017-11-23T03:38:42.813Z,933.24
2017-11-23T03:39:55.540Z,933.24
2017-11-23T03:41:07.830Z,933.23
2017-11-23T03:42:20.588Z,933.24
2017-11-23T03:43:32.878Z,933.24
2017-11-23T03:44:45.174Z,933.24
2017-11-23T03:45:57.923Z,933.18
2017-11-23T03:47:10.671Z,933.18
2017-11-23T03:48:23.433Z,933.17
2017-11-23T03:49:36.202Z,933.2
2017-11-23T03:50:48.971Z,933.13
2017-11-23T03:52:01.736Z,933.12
2017-11-23T03:53:14.471Z,933.11
2017-11-23T03:54:27.217Z,933.09
2017-11-23T03:55:39.973Z,933.08
2017-11-23T03:56:52.701Z,933.05
2017-11-23T03:58:04.988Z,933.05
2017-11-23T03:59:17.746Z,933.04
2017-11-23T04:00:30.027Z,933.03
2017-11-23T04:01:42.763Z,933.07
2017-11-23T04:02:55.494Z,933.02
2017-11-23T04:04:08.241Z,932.97
2017-11-23T04:05:20.534Z,932.99
2017-11-23T04:06:33.258Z,932.95
2017-11-23T04:07:45.996Z,932.94
2017-11-23T04:08:58.747Z,932.95
2017-11-23T04:10:11.033Z,932.97
2017-11-23T04:11:23.794Z,932.96
2017-11-23T04:12:36.531Z,932.91
2017-11-23T04:13:49.273Z,932.94
2017-11-23T04:15:02.024Z,932.92
2017-11-23T04:16:14.794Z,932.91
2017-11-23T04:17:27.547Z,932.91
2017-11-23T04:18:40.299Z,932.91
2017-11-23T04:19:52.621Z,932.92
2017-11-23T04:21:05.395Z,932.89
2017-11-23T04:22:18.157Z,932.91
2017-11-23T04:23:30.481Z,932.86
2017-11-23T04:24:42.773Z,932.88
2017-11-23T04:25:55.534Z,932.86
2017-11-23T04:27:07.816Z,932.81
2017-11-23T04:28:20.600Z,932.79
2017-11-23T04:29:33.365Z,932.8
2017-11-23T04:30:45.656Z,932.79
2017-11-23T04:31:57.963Z,932.76
2017-11-23T04:33:10.727Z,932.78
2017-11-23T04:34:23.482Z,932.72
2017-11-23T04:35:35.791Z,932.7
2017-11-23T04:36:48.088Z,932.72
2017-11-23T04:38:00.860Z,932.71
2017-11-23T04:39:13.633Z,932.76
2017-11-23T04:40:26.380Z,932.75
2017-11-23T04:41:39.140Z,932.82
2017-11-23T04:42:51.906Z,932.8
2017-11-23T04:44:04.659Z,932.76
2017-11-23T04:45:17.388Z,932.76
2017-11-23T04:46:30.158Z,932.73
2017-11-23T04:47:42.447Z,932.75
2017-11-23T04:48:55.148Z,932.75
2017-11-23T04:50:07.803Z,932.76
2017-11-23T04:51:20.483Z,932.8
2017-11-23T04:52:33.174Z,932.74
2017-11-23T04:53:45.871Z,932.78
2017-11-23T04:54:58.528Z,932.79
2017-11-23T04:56:10.758Z,932.77
2017-11-23T04:57:22.985Z,932.81
2017-11-23T04:58:35.653Z,932.83
2017-11-23T04:59:48.383Z,932.84
2017-11-23T05:01:01.040Z,932.84
2017-11-23T05:02:13.213Z,932.82
2017-11-23T05:03:25.463Z,932.79
2017-11-23T05:04:37.712Z,932.77
2017-11-23T05:05:50.479Z,932.73
2017-11-23T05:07:03.157Z,932.69
2017-11-23T05:08:15.841Z,932.62
2017-11-23T05:09:28.544Z,932.63
2017-11-23T05:10:41.229Z,932.63
2017-11-23T05:11:53.939Z,932.55
2017-11-23T05:13:06.651Z,932.59
2017-11-23T05:14:19.391Z,932.6
2017-11-23T05:15:31.668Z,932.58
2017-11-23T05:16:44.376Z,932.52
2017-11-23T05:17:57.072Z,932.56
2017-11-23T05:19:09.328Z,932.58
2017-11-23T05:20:22.005Z,932.59
2017-11-23T05:21:34.690Z,932.67
2017-11-23T05:22:47.386Z,932.64
2017-11-23T05:24:00.156Z,932.66
2017-11-23T05:25:12.482Z,932.64
2017-11-23T05:26:25.255Z,932.63
2017-11-23T05:27:38.039Z,932.64
2017-11-23T05:28:50.805Z,932.64
2017-11-23T05:30:03.570Z,932.63
2017-11-23T05:31:15.006Z,932.6
2017-11-23T05:32:27.314Z,932.6
2017-11-23T05:33:40.082Z,932.55
2017-11-23T05:34:52.870Z,932.53
2017-11-23T05:36:05.647Z,932.48
2017-11-23T05:37:18.446Z,932.5
2017-11-23T05:38:31.232Z,932.53
2017-11-23T05:39:44.043Z,932.54
2017-11-23T05:40:56.840Z,932.53
2017-11-23T05:42:09.632Z,932.47
2017-11-23T05:43:22.445Z,932.52
2017-11-23T05:44:35.249Z,932.51
2017-11-23T05:45:48.018Z,932.51
2017-11-23T05:47:00.799Z,932.51
2017-11-23T05:48:13.132Z,932.49
2017-11-23T05:49:25.930Z,932.53
2017-11-23T05:50:38.746Z,932.57
2017-11-23T05:51:51.509Z,932.55
2017-11-23T05:53:04.317Z,932.61
2017-11-23T05:54:17.114Z,932.62
2017-11-23T05:55:29.438Z,932.62
2017-11-23T05:56:41.294Z,932.65
2017-11-23T05:57:53.637Z,932.63
2017-11-23T05:59:06.408Z,932.64
2017-11-23T06:00:18.733Z,932.62
2017-11-23T06:01:31.525Z,932.64
2017-11-23T06:02:43.857Z,932.66
2017-11-23T06:03:56.636Z,932.65
2017-11-23T06:05:09.381Z,932.64
2017-11-23T06:06:22.135Z,932.64
2017-11-23T06:07:34.880Z,932.6
2017-11-23T06:08:47.618Z,932.63
2017-11-23T06:10:00.364Z,932.57
2017-11-23T06:11:13.092Z,932.59
2017-11-23T06:12:25.826Z,932.58
2017-11-23T06:13:38.134Z,932.59
2017-11-23T06:14:50.879Z,932.56
2017-11-23T06:16:03.170Z,932.55
2017-11-23T06:17:15.956Z,932.55
2017-11-23T06:18:28.700Z,932.56
2017-11-23T06:19:41.440Z,932.57
2017-11-23T06:20:54.172Z,932.61
2017-11-23T06:22:06.902Z,932.57
2017-11-23T06:23:19.642Z,932.56
2017-11-23T06:24:32.400Z,932.56
2017-11-23T06:25:45.164Z,932.55
2017-11-23T06:26:57.899Z,932.59
2017-11-23T06:28:10.717Z,932.56
2017-11-23T06:29:23.438Z,932.62
2017-11-23T06:30:36.194Z,932.58
2017-11-23T06:31:48.432Z,932.59
2017-11-23T06:33:01.110Z,932.57
2017-11-23T06:34:13.784Z,932.59
2017-11-23T06:35:26.441Z,932.52
2017-11-23T06:36:39.108Z,932.6
2017-11-23T06:37:51.350Z,932.59
2017-11-23T06:39:04.017Z,932.63
2017-11-23T06:40:16.765Z,932.6
2017-11-23T06:41:29.019Z,932.61
2017-11-23T06:42:41.755Z,932.71
2017-11-23T06:43:54.453Z,932.69
2017-11-23T06:45:07.167Z,932.7
2017-11-23T06:46:19.811Z,932.69
2017-11-23T06:47:32.576Z,932.67
2017-11-23T06:48:45.247Z,932.7
2017-11-23T06:49:57.963Z,932.68
2017-11-23T06:51:10.240Z,932.66
2017-11-23T06:52:23.725Z,932.67
2017-11-23T06:53:36.418Z,932.64
2017-11-23T06:54:49.220Z,932.64
2017-11-23T06:56:01.983Z,932.61
2017-11-23T06:57:14.690Z,932.67
2017-11-23T06:58:27.453Z,932.65
2017-11-23T06:59:40.193Z,932.66
2017-11-23T07:00:52.946Z,932.65
2017-11-23T07:02:05.663Z,932.69
2017-11-23T07:03:17.864Z,932.73
2017-11-23T07:04:30.570Z,932.7
2017-11-23T07:05:43.335Z,932.69
2017-11-23T07:06:56.085Z,932.7
2017-11-23T07:08:08.853Z,932.72
2017-11-23T07:09:21.151Z,932.72
2017-11-23T07:10:33.443Z,932.74
2017-11-23T07:11:46.225Z,932.71
2017-11-23T07:12:58.998Z,932.7
2017-11-23T07:14:11.779Z,932.75
2017-11-23T07:15:24.556Z,932.75
2017-11-23T07:16:36.436Z,932.69
2017-11-23T07:17:49.218Z,932.71
2017-11-23T07:19:02.005Z,932.7
2017-11-23T07:20:14.763Z,932.68
2017-11-23T07:21:27.091Z,932.67
2017-11-23T07:22:39.963Z,932.7
2017-11-23T07:23:52.790Z,932.73
2017-11-23T07:25:05.536Z,932.75
2017-11-23T07:26:17.853Z,932.72
2017-11-23T07:27:30.616Z,932.7
2017-11-23T07:28:43.399Z,932.76
2017-11-23T07:29:55.722Z,932.75
2017-11-23T07:31:08.436Z,932.75
2017-11-23T07:32:21.220Z,932.73
2017-11-23T07:33:34.067Z,932.76
2017-11-23T07:34:46.874Z,932.78
2017-11-23T07:35:59.678Z,932.77
2017-11-23T07:37:11.954Z,932.79
2017-11-23T07:38:23.764Z,932.8
2017-11-23T07:39:36.101Z,932.82
2017-11-23T07:40:48.832Z,932.85
2017-11-23T07:42:01.129Z,932.89
2017-11-23T07:43:13.888Z,932.85
2017-11-23T07:44:26.663Z,932.88
2017-11-23T07:45:38.954Z,932.87
2017-11-23T07:46:51.262Z,932.88
2017-11-23T07:48:03.549Z,932.84
2017-11-23T07:49:15.922Z,932.82
2017-11-23T07:50:28.674Z,932.8
2017-11-23T07:51:40.957Z,932.78
2017-11-23T07:52:53.690Z,932.79
2017-11-23T07:54:06.419Z,932.8
2017-11-23T07:55:19.193Z,932.79
2017-11-23T07:56:31.924Z,932.82
2017-11-23T07:57:44.698Z,932.83
2017-11-23T07:58:57.449Z,932.84
2017-11-23T08:00:10.203Z,932.79
2017-11-23T08:01:22.071Z,932.82
2017-11-23T08:02:34.346Z,932.75
2017-11-23T08:03:47.064Z,932.72
2017-11-23T08:04:59.829Z,932.74
2017-11-23T08:06:12.601Z,932.68
2017-11-23T08:07:24.934Z,932.69
2017-11-23T08:08:37.251Z,932.66
2017-11-23T08:09:50.025Z,932.67
2017-11-23T08:11:02.755Z,932.71
2017-11-23T08:12:15.486Z,932.72
2017-11-23T08:13:27.786Z,932.76
2017-11-23T08:14:40.476Z,932.82
2017-11-23T08:15:53.210Z,932.82
2017-11-23T08:17:05.949Z,932.87
2017-11-23T08:18:18.634Z,932.88
2017-11-23T08:19:31.403Z,932.89
2017-11-23T08:20:44.166Z,932.94
2017-11-23T08:21:56.931Z,932.94
2017-11-23T08:23:09.194Z,932.93
2017-11-23T08:24:21.913Z,932.95
2017-11-23T08:25:34.608Z,932.92
2017-11-23T08:26:47.314Z,932.89
2017-11-23T08:27:59.990Z,932.85
2017-11-23T08:29:12.705Z,932.87
2017-11-23T08:30:25.354Z,932.93
2017-11-23T08:31:38.072Z,932.96
2017-11-23T08:32:50.779Z,932.9
2017-11-23T08:34:03.017Z,932.94
2017-11-23T08:35:15.260Z,932.91
2017-11-23T08:36:27.505Z,932.92
2017-11-23T08:37:39.778Z,932.91
2017-11-23T08:38:51.551Z,932.96
2017-11-23T08:40:04.284Z,932.96
2017-11-23T08:41:16.923Z,932.94
2017-11-23T08:42:29.608Z,932.94
2017-11-23T08:43:42.291Z,933
2017-11-23T08:44:54.606Z,932.91
2017-11-23T08:46:07.366Z,932.99
2017-11-23T08:47:20.090Z,932.98
2017-11-23T08:48:31.809Z,932.98
2017-11-23T08:49:43.966Z,932.95
2017-11-23T08:50:56.603Z,933
2017-11-23T08:52:09.198Z,932.97
2017-11-23T08:53:21.371Z,933.03
2017-11-23T08:54:34.007Z,933.04
2017-11-23T08:55:46.221Z,933.03
2017-11-23T08:56:58.897Z,933.06
2017-11-23T08:58:11.139Z,933.11
2017-11-23T08:59:23.351Z,933.1
2017-11-23T09:00:35.122Z,933.18
2017-11-23T09:01:46.844Z,933.18
2017-11-23T09:02:59.444Z,933.16
2017-11-23T09:04:12.164Z,933.2
2017-11-23T09:05:24.399Z,933.25
2017-11-23T09:06:36.584Z,933.23
2017-11-23T09:07:49.211Z,933.24
2017-11-23T09:09:01.828Z,933.28
2017-11-23T09:10:14.467Z,933.22
2017-11-23T09:11:27.195Z,933.21
2017-11-23T09:12:39.921Z,933.26
2017-11-23T09:13:52.602Z,933.25
2017-11-23T09:15:04.834Z,933.26
2017-11-23T09:16:17.476Z,933.22
2017-11-23T09:17:30.102Z,933.27
2017-11-23T09:18:42.777Z,933.27
2017-11-23T09:19:55.033Z,933.29
2017-11-23T09:21:07.796Z,933.29
2017-11-23T09:22:20.072Z,933.34
2017-11-23T09:23:32.845Z,933.35
2017-11-23T09:24:44.662Z,933.37
2017-11-23T09:25:56.972Z,933.4
2017-11-23T09:27:09.715Z,933.44
2017-11-23T09:28:22.455Z,933.44
2017-11-23T09:29:35.231Z,933.45
2017-11-23T09:30:47.069Z,933.51
2017-11-23T09:31:59.825Z,933.52
2017-11-23T09:33:12.122Z,933.55
2017-11-23T09:34:24.895Z,933.51
2017-11-23T09:35:37.667Z,933.54
2017-11-23T09:36:49.950Z,933.56
2017-11-23T09:38:02.639Z,933.53
2017-11-23T09:39:15.362Z,933.53
2017-11-23T09:40:28.118Z,933.57
2017-11-23T09:41:40.893Z,933.61
2017-11-23T09:42:53.629Z,933.6
2017-11-23T09:44:06.414Z,933.6
2017-11-23T09:45:18.732Z,933.57
2017-11-23T09:46:31.457Z,933.62
2017-11-23T09:47:44.227Z,933.64
2017-11-23T09:48:56.901Z,933.64
2017-11-23T09:50:09.220Z,933.68
2017-11-23T09:51:21.980Z,933.66
2017-11-23T09:52:34.275Z,933.67
2017-11-23T09:53:47.054Z,933.68
2017-11-23T09:54:59.814Z,933.65
2017-11-23T09:56:12.570Z,933.69
2017-11-23T09:57:25.343Z,933.68
2017-11-23T09:58:37.595Z,933.65
2017-11-23T09:59:48.947Z,933.7
2017-11-23T10:01:01.682Z,933.68
2017-11-23T10:02:14.401Z,933.7
2017-11-23T10:03:27.104Z,933.71
2017-11-23T10:04:39.849Z,933.68
2017-11-23T10:05:52.565Z,933.65
2017-11-23T10:07:04.899Z,933.66
2017-11-23T10:08:17.170Z,933.69
2017-11-23T10:09:29.923Z,933.66
2017-11-23T10:10:41.741Z,933.66
2017-11-23T10:11:54.024Z,933.67
2017-11-23T10:13:06.738Z,933.67
2017-11-23T10:14:18.542Z,933.68
2017-11-23T10:15:31.249Z,933.7
2017-11-23T10:16:43.524Z,933.69
2017-11-23T10:17:56.234Z,933.72
2017-11-23T10:19:08.490Z,933.7
2017-11-23T10:20:21.208Z,933.74
2017-11-23T10:21:33.873Z,933.71
2017-11-23T10:22:46.580Z,933.76
2017-11-23T10:23:59.340Z,933.73
2017-11-23T10:25:12.054Z,933.76
2017-11-23T10:26:23.825Z,933.77
2017-11-23T10:27:36.540Z,933.75
2017-11-23T10:28:49.241Z,933.76
2017-11-23T10:30:01.488Z,933.77
2017-11-23T10:31:14.160Z,933.82
2017-11-23T10:32:26.881Z,933.82
2017-11-23T10:33:38.654Z,933.78
2017-11-23T10:34:51.342Z,933.84
2017-11-23T10:36:03.566Z,933.84
2017-11-23T10:37:16.223Z,933.82
2017-11-23T10:38:28.514Z,933.78
2017-11-23T10:39:41.176Z,933.76
2017-11-23T10:40:53.892Z,933.79
2017-11-23T10:42:06.549Z,933.77
2017-11-23T10:43:18.762Z,933.79
2017-11-23T10:44:31.463Z,933.73
2017-11-23T10:45:44.124Z,933.7
2017-11-23T10:46:56.818Z,933.74
2017-11-23T10:48:09.479Z,933.74
2017-11-23T10:49:22.374Z,933.77
2017-11-23T10:50:35.048Z,933.72
2017-11-23T10:51:47.738Z,933.75
2017-11-23T10:53:00.440Z,933.77
2017-11-23T10:54:12.666Z,933.75
2017-11-23T10:55:24.002Z,933.73
2017-11-23T10:56:36.673Z,933.79
2017-11-23T10:57:49.379Z,933.78
2017-11-23T10:59:02.119Z,933.79
2017-11-23T11:00:14.803Z,933.82
2017-11-23T11:01:27.501Z,933.78
2017-11-23T11:02:39.729Z,933.78
2017-11-23T11:03:52.410Z,933.81
2017-11-23T11:05:05.066Z,933.9
2017-11-23T11:06:17.747Z,933.87
2017-11-23T11:07:30.005Z,933.9
2017-11-23T11:08:42.718Z,933.9
2017-11-23T11:09:55.389Z,933.91
2017-11-23T11:11:08.170Z,933.94
2017-11-23T11:12:20.792Z,933.92
2017-11-23T11:13:33.044Z,933.95
2017-11-23T11:14:45.696Z,933.96
2017-11-23T11:15:58.335Z,933.98
2017-11-23T11:17:10.977Z,934.06
2017-11-23T11:18:23.653Z,934.02
2017-11-23T11:19:36.252Z,934
2017-11-23T11:20:48.825Z,934
2017-11-23T11:22:01.513Z,934
2017-11-23T11:23:14.212Z,934.02
2017-11-23T11:24:26.876Z,934.05
2017-11-23T11:25:39.495Z,934.02
2017-11-23T11:26:52.251Z,934.07
2017-11-23T11:28:04.921Z,934.06
2017-11-23T11:29:17.621Z,934.09
2017-11-23T11:30:29.799Z,934.06
2017-11-23T11:31:42.480Z,934.12
2017-11-23T11:32:54.838Z,934.09
2017-11-23T11:34:07.461Z,934.1
2017-11-23T11:35:20.143Z,934.1
2017-11-23T11:36:32.349Z,934.07
2017-11-23T11:37:44.556Z,934.09
2017-11-23T11:38:57.140Z,934.07
2017-11-23T11:40:09.729Z,934.09
2017-11-23T11:41:22.411Z,934.03
2017-11-23T11:42:34.580Z,934.02
2017-11-23T11:43:47.261Z,934
2017-11-23T11:44:59.920Z,934.05
2017-11-23T11:46:12.205Z,934.1
2017-11-23T11:47:24.462Z,934.07
2017-11-23T11:48:36.741Z,934.1
2017-11-23T11:49:49.031Z,934.12
2017-11-23T11:51:01.296Z,934.12
2017-11-23T11:52:13.675Z,934.16
2017-11-23T11:53:26.453Z,934.15
2017-11-23T11:54:39.206Z,934.22
2017-11-23T11:55:51.937Z,934.17
2017-11-23T11:57:04.687Z,934.18
2017-11-23T11:58:17.428Z,934.17
2017-11-23T11:59:30.181Z,934.17
2017-11-23T12:00:42.489Z,934.19
2017-11-23T12:01:54.771Z,934.2
2017-11-23T12:03:07.530Z,934.19
2017-11-23T12:04:20.334Z,934.13
2017-11-23T12:05:33.219Z,934.24
2017-11-23T12:06:46.020Z,934.24
2017-11-23T12:07:58.798Z,934.29
2017-11-23T12:09:11.133Z,934.27
2017-11-23T12:10:23.454Z,934.32
2017-11-23T12:11:35.760Z,934.25
2017-11-23T12:12:48.536Z,934.25
2017-11-23T12:14:01.322Z,934.26
2017-11-23T12:15:13.620Z,934.24
2017-11-23T12:16:26.408Z,934.21
2017-11-23T12:17:39.167Z,934.22
2017-11-23T12:18:51.932Z,934.26
2017-11-23T12:20:04.646Z,934.24
2017-11-23T12:21:17.345Z,934.17
2017-11-23T12:22:29.631Z,934.2
2017-11-23T12:23:41.915Z,934.15
2017-11-23T12:24:54.629Z,934.18
2017-11-23T12:26:06.413Z,934.2
2017-11-23T12:27:18.717Z,934.24
2017-11-23T12:28:30.991Z,934.18
2017-11-23T12:29:43.288Z,934.21
2017-11-23T12:30:55.974Z,934.18
2017-11-23T12:32:08.606Z,934.23
2017-11-23T12:33:20.397Z,934.27
2017-11-23T12:34:32.187Z,934.28
2017-11-23T12:35:44.873Z,934.2
2017-11-23T12:36:57.564Z,934.23
2017-11-23T12:38:10.214Z,934.2
2017-11-23T12:39:21.965Z,934.23
2017-11-23T12:40:34.650Z,934.22
2017-11-23T12:41:47.394Z,934.2
2017-11-23T12:43:00.090Z,934.24
2017-11-23T12:44:12.353Z,934.23
2017-11-23T12:45:25.051Z,934.22
2017-11-23T12:46:37.728Z,934.26
2017-11-23T12:47:50.005Z,934.21
2017-11-23T12:49:02.278Z,934.23
2017-11-23T12:50:13.594Z,934.22
2017-11-23T12:51:25.886Z,934.15
2017-11-23T12:52:38.109Z,934.17
2017-11-23T12:53:50.339Z,934.13
2017-11-23T12:55:02.562Z,934.13
2017-11-23T12:56:14.795Z,934.06
2017-11-23T12:57:27.461Z,934.08
2017-11-23T12:58:40.150Z,934.1
2017-11-23T12:59:52.846Z,934.13
2017-11-23T13:01:05.137Z,934.09
2017-11-23T13:02:16.951Z,934.07
2017-11-23T13:03:29.164Z,934.05
2017-11-23T13:04:41.845Z,934.06
2017-11-23T13:05:54.116Z,934.08
2017-11-23T13:07:06.373Z,934.06
2017-11-23T13:08:19.038Z,934.07
2017-11-23T13:09:31.348Z,934.05
2017-11-23T13:10:44.004Z,934.1
2017-11-23T13:11:56.272Z,934.07
2017-11-23T13:13:08.544Z,934.03
2017-11-23T13:14:21.300Z,934.06
2017-11-23T13:15:33.600Z,934.06
2017-11-23T13:16:46.253Z,934.05
2017-11-23T13:17:58.501Z,934.06
2017-11-23T13:19:11.146Z,934.1
2017-11-23T13:20:22.887Z,934.05
2017-11-23T13:21:35.164Z,934.06
2017-11-23T13:22:47.855Z,934.04
2017-11-23T13:24:00.502Z,934.08
2017-11-23T13:25:13.191Z,934.04
2017-11-23T13:26:25.911Z,934.05
2017-11-23T13:27:38.653Z,934.05
2017-11-23T13:28:50.944Z,934.09
2017-11-23T13:30:03.234Z,934.04
2017-11-23T13:31:15.526Z,934.08
2017-11-23T13:32:27.364Z,934.07
2017-11-23T13:33:39.650Z,934.05
2017-11-23T13:34:52.388Z,934.07
2017-11-23T13:36:05.135Z,934.06
2017-11-23T13:37:17.883Z,934.06
2017-11-23T13:38:30.167Z,934.09
2017-11-23T13:39:42.471Z,934.12
2017-11-23T13:40:55.203Z,934.09
2017-11-23T13:42:07.486Z,934.14
2017-11-23T13:43:20.285Z,934.19
2017-11-23T13:44:33.020Z,934.18
2017-11-23T13:45:45.864Z,934.13
2017-11-23T13:46:58.593Z,934.12
2017-11-23T13:48:11.330Z,934.16
2017-11-23T13:49:24.076Z,934.14
2017-11-23T13:50:36.364Z,934.13
2017-11-23T13:51:49.106Z,934.17
2017-11-23T13:53:00.957Z,934.12
2017-11-23T13:54:12.769Z,934.15
2017-11-23T13:55:25.505Z,934.14
2017-11-23T13:56:37.785Z,934.16
2017-11-23T13:57:50.531Z,934.19
2017-11-23T13:59:02.886Z,934.19
2017-11-23T14:00:15.628Z,934.16
2017-11-23T14:01:27.920Z,934.22
2017-11-23T14:02:40.213Z,934.19
2017-11-23T14:03:52.032Z,934.08
2017-11-23T14:05:04.524Z,934.13
2017-11-23T14:06:19.505Z,934.15
2017-11-23T14:07:31.782Z,934.17
2017-11-23T14:08:44.064Z,934.18
2017-11-23T14:09:56.826Z,934.17
2017-11-23T14:11:09.568Z,934.19
2017-11-23T14:12:21.406Z,934.22
2017-11-23T14:13:34.177Z,934.2
2017-11-23T14:14:46.447Z,934.26
2017-11-23T14:15:59.181Z,934.24
2017-11-23T14:17:11.936Z,934.19
2017-11-23T14:18:24.245Z,934.23
2017-11-23T14:19:37.003Z,934.25
2017-11-23T14:20:48.389Z,934.2
2017-11-23T14:22:01.127Z,934.18
2017-11-23T14:23:12.966Z,934.16
2017-11-23T14:24:25.717Z,934.13
2017-11-23T14:25:38.003Z,934.11
2017-11-23T14:27:25.142Z,934.11
2017-11-23T14:28:37.887Z,934.1
2017-11-23T14:29:50.626Z,934.1
2017-11-23T14:31:03.367Z,934.12
2017-11-23T14:32:15.660Z,934.11
2017-11-23T14:33:27.944Z,934.09
2017-11-23T14:34:40.679Z,934.06
2017-11-23T14:35:52.957Z,934.06
2017-11-23T14:37:05.907Z,934.04
2017-11-23T14:38:25.427Z,934.06
2017-11-23T14:39:38.159Z,934.06
2017-11-23T14:40:50.892Z,934.08
2017-11-23T14:42:03.157Z,934.03
2017-11-23T14:43:15.884Z,934.03
2017-11-23T14:44:28.600Z,934.04
2017-11-23T14:45:40.422Z,933.99
2017-11-23T14:46:52.262Z,933.95
2017-11-23T14:48:04.933Z,934.04
2017-11-23T14:49:31.105Z,934.04
2017-11-23T14:50:43.834Z,934.03
2017-11-23T14:51:56.568Z,934.02
2017-11-23T14:53:08.398Z,934.06
2017-11-23T14:54:21.115Z,934.07
2017-11-23T14:55:33.831Z,934.04
2017-11-23T14:56:46.563Z,934
2017-11-23T14:57:59.301Z,933.97
2017-11-23T14:59:11.557Z,933.96
2017-11-23T15:00:24.284Z,933.96
2017-11-23T15:01:37.025Z,933.96
2017-11-23T15:02:49.741Z,933.97
2017-11-23T15:04:02.485Z,933.95
2017-11-23T15:05:15.212Z,933.94
2017-11-23T15:06:27.953Z,933.87
2017-11-23T15:07:40.681Z,933.78
2017-11-23T15:08:52.969Z,933.88
2017-11-23T15:10:15.750Z,933.86